createdAt,value
2019-03-23T08:57:03.486Z,3.23
2019-03-23T08:59:34.822Z,3.22
2019-03-23T09:02:06.282Z,3.33
2019-03-23T09:04:37.942Z,3.40
2019-03-23T09:07:09.388Z,2.87
2019-03-23T09:09:40.752Z,2.96
2019-03-23T09:12:12.297Z,3.10
2019-03-23T09:14:43.848Z,3.24
2019-03-23T09:17:15.513Z,3.44
2019-03-23T09:19:46.973Z,3.47
2019-03-23T09:22:18.519Z,3.57
2019-03-23T09:24:50.076Z,3.67
2019-03-23T09:27:21.524Z,3.87
2019-03-23T09:29:53.184Z,4.04
2019-03-23T09:32:24.640Z,4.19
2019-03-23T09:34:56.502Z,4.27
2019-03-23T09:37:27.953Z,4.13
2019-03-23T09:40:09.963Z,4.14
2019-03-23T09:42:32.897Z,4.13
2019-03-23T09:45:06.608Z,4.45
2019-03-23T09:47:37.968Z,4.80
2019-03-23T09:50:10.440Z,4.29
2019-03-23T09:52:41.788Z,2.94
2019-03-23T09:55:13.445Z,2.54
2019-03-23T09:57:44.798Z,2.70
2019-03-23T10:00:16.559Z,3.09
2019-03-23T10:02:47.953Z,3.36
2019-03-23T10:05:19.563Z,3.65
2019-03-23T10:07:50.857Z,4.01
2019-03-23T10:10:22.386Z,4.14
2019-03-23T10:12:53.929Z,4.31
2019-03-23T10:15:25.798Z,4.30
2019-03-23T10:17:57.243Z,4.37
2019-03-23T10:20:28.898Z,4.36
2019-03-23T10:23:00.258Z,4.37
2019-03-23T10:25:31.908Z,4.45
2019-03-23T10:28:03.366Z,4.45
2019-03-23T10:30:34.829Z,4.35
2019-03-23T10:33:06.265Z,4.46
2019-03-23T10:35:37.824Z,4.51
2019-03-23T10:38:09.484Z,4.56
2019-03-23T10:40:42.930Z,4.53
2019-03-23T10:43:13.884Z,4.51
2019-03-23T10:45:45.478Z,4.48
2019-03-23T10:48:17.032Z,4.45
2019-03-23T10:50:48.479Z,4.48
2019-03-23T10:53:23.185Z,4.44
2019-03-23T10:55:53.136Z,4.42
2019-03-23T10:58:24.504Z,4.37
2019-03-23T11:00:56.036Z,4.38
2019-03-23T11:03:27.490Z,4.35
2019-03-23T11:05:59.150Z,4.32
2019-03-23T11:08:30.511Z,4.44
2019-03-23T11:11:02.262Z,4.48
2019-03-23T11:13:33.808Z,4.51
2019-03-23T11:16:05.471Z,4.41
2019-03-23T11:18:37.886Z,4.32
2019-03-23T11:21:09.317Z,4.39
2019-03-23T11:23:40.755Z,4.44
2019-03-23T11:26:12.445Z,4.55
2019-03-23T11:28:43.866Z,4.67
2019-03-23T11:31:16.567Z,4.74
2019-03-23T11:33:48.107Z,4.79
2019-03-23T11:36:19.659Z,4.72
2019-03-23T11:38:50.894Z,4.77
2019-03-23T11:41:22.564Z,4.80
2019-03-23T11:43:54.432Z,4.93
2019-03-23T11:46:25.879Z,5.04
2019-03-23T11:48:57.231Z,5.10
2019-03-23T11:51:28.894Z,5.26
2019-03-23T11:54:00.237Z,5.39
2019-03-23T11:56:31.898Z,5.39
2019-03-23T11:59:03.273Z,5.49
2019-03-23T12:01:35.016Z,5.37
2019-03-23T12:04:06.489Z,5.47
2019-03-23T12:06:37.738Z,5.43
2019-03-23T12:09:09.266Z,5.32
2019-03-23T12:11:40.481Z,5.30
2019-03-23T12:14:12.172Z,5.26
2019-03-23T12:16:43.737Z,5.30
2019-03-23T12:19:15.388Z,5.35
2019-03-23T12:21:47.149Z,5.35
2019-03-23T12:24:18.802Z,5.30
2019-03-23T12:26:50.365Z,5.33
2019-03-23T12:29:21.832Z,5.27
2019-03-23T12:31:53.473Z,5.28
2019-03-23T12:34:25.022Z,5.31
2019-03-23T12:36:56.683Z,5.42
2019-03-23T12:39:28.340Z,5.48
2019-03-23T12:41:59.895Z,5.52
2019-03-23T12:44:31.553Z,5.52
2019-03-23T12:47:03.210Z,5.39
2019-03-23T12:49:34.871Z,5.41
2019-03-23T12:52:06.322Z,5.43
2019-03-23T12:54:37.982Z,5.41
2019-03-23T12:57:09.538Z,5.40
2019-03-23T12:59:41.198Z,5.46
2019-03-23T13:02:12.647Z,5.54
2019-03-23T13:04:44.310Z,5.68
2019-03-23T13:07:15.862Z,5.78
2019-03-23T13:09:47.214Z,5.85
2019-03-23T13:12:18.867Z,5.87
2019-03-23T13:14:50.222Z,5.83
2019-03-23T13:17:21.774Z,5.77
2019-03-23T13:19:53.339Z,5.71
2019-03-23T13:22:24.988Z,5.73
2019-03-23T13:24:56.443Z,5.60
2019-03-23T13:27:28.100Z,5.64
2019-03-23T13:30:02.008Z,5.60
2019-03-23T13:32:33.671Z,5.57
2019-03-23T13:35:05.738Z,5.64
2019-03-23T13:37:37.290Z,5.56
2019-03-23T13:40:10.789Z,5.53
2019-03-23T13:42:42.037Z,5.56
2019-03-23T13:45:13.492Z,5.55
2019-03-23T13:47:45.052Z,5.49
2019-03-23T13:50:27.348Z,5.48
2019-03-23T13:52:58.709Z,5.56
2019-03-23T13:55:33.427Z,5.44
2019-03-23T13:58:09.611Z,5.39
2019-03-23T14:00:42.068Z,5.28
2019-03-23T14:03:13.720Z,5.15
2019-03-23T14:05:45.173Z,5.12
2019-03-23T14:08:16.832Z,5.09
2019-03-23T14:10:48.491Z,5.08
2019-03-23T14:13:19.950Z,5.06
2019-03-23T14:15:51.805Z,5.02
2019-03-23T14:18:23.262Z,5.03
2019-03-23T14:20:55.019Z,5.14
2019-03-23T14:23:26.469Z,5.11
2019-03-23T14:25:58.127Z,5.09
2019-03-23T14:28:29.588Z,5.11
2019-03-23T14:31:01.445Z,5.07
2019-03-23T14:33:33.311Z,5.12
2019-03-23T14:36:04.877Z,5.14
2019-03-23T14:38:36.624Z,5.13
2019-03-23T14:41:08.301Z,5.11
2019-03-23T14:43:40.144Z,5.13
2019-03-23T14:46:11.908Z,5.09
2019-03-23T14:48:43.364Z,5.10
2019-03-23T14:51:15.117Z,5.08
2019-03-23T14:53:46.979Z,5.02
2019-03-23T14:56:18.434Z,5.08
2019-03-23T14:58:53.162Z,4.99
2019-03-23T15:01:24.721Z,4.95
2019-03-23T15:03:56.370Z,4.93
2019-03-23T15:06:27.857Z,4.92
2019-03-23T15:08:59.585Z,4.89
2019-03-23T15:11:31.171Z,4.87
2019-03-23T15:14:02.902Z,4.89
2019-03-23T15:16:34.458Z,4.88
2019-03-23T15:19:06.049Z,4.91
2019-03-23T15:21:37.776Z,4.87
2019-03-23T15:24:09.532Z,4.87
2019-03-23T15:26:41.294Z,4.87
2019-03-23T15:29:12.887Z,4.87
2019-03-23T15:31:44.616Z,4.90
2019-03-23T15:34:16.170Z,4.89
2019-03-23T15:36:47.719Z,4.78
2019-03-23T15:39:19.175Z,4.78
2019-03-23T15:41:51.035Z,4.79
2019-03-23T15:44:22.597Z,4.76
2019-03-23T15:46:54.351Z,4.78
2019-03-23T15:49:25.804Z,4.74
2019-03-23T15:51:57.360Z,4.60
2019-03-23T15:54:29.158Z,4.44
2019-03-23T15:57:00.873Z,4.45
2019-03-23T15:59:32.540Z,4.41
2019-03-23T16:02:04.202Z,4.39
2019-03-23T16:04:35.640Z,4.34
2019-03-23T16:07:07.213Z,4.14
2019-03-23T16:09:38.566Z,4.05
2019-03-23T16:12:10.114Z,4.05
2019-03-23T16:14:41.561Z,3.97
2019-03-23T16:17:13.114Z,3.98
2019-03-23T16:19:44.700Z,3.98
2019-03-23T16:22:16.439Z,4.03
2019-03-23T16:24:48.194Z,4.06
2019-03-23T16:27:19.678Z,4.10
2019-03-23T16:29:51.305Z,4.10
2019-03-23T16:32:22.860Z,4.17
2019-03-23T16:34:54.219Z,4.13
2019-03-23T16:37:26.077Z,4.16
2019-03-23T16:39:58.857Z,4.15
2019-03-23T16:42:30.617Z,4.20
2019-03-23T16:45:02.281Z,4.15
2019-03-23T16:47:33.946Z,4.16
2019-03-23T16:50:08.011Z,4.20
2019-03-23T16:52:39.516Z,4.15
2019-03-23T16:55:11.568Z,4.20
2019-03-23T16:57:43.124Z,4.17
2019-03-23T17:00:16.581Z,4.15
2019-03-23T17:02:50.763Z,4.11
2019-03-23T17:05:24.619Z,4.15
2019-03-23T17:07:58.480Z,4.14
2019-03-23T17:10:32.504Z,4.09
2019-03-23T17:13:06.606Z,4.12
2019-03-23T17:15:40.733Z,4.10
2019-03-23T17:18:14.725Z,4.19
2019-03-23T17:20:49.255Z,4.20
2019-03-23T17:23:23.149Z,4.15
2019-03-23T17:25:58.678Z,4.11
2019-03-23T17:28:32.651Z,4.14
2019-03-23T17:31:06.462Z,4.13
2019-03-23T17:33:40.734Z,4.15
2019-03-23T17:36:14.906Z,4.13
2019-03-23T17:38:50.735Z,4.16
2019-03-23T17:41:24.706Z,4.12
2019-03-23T17:43:58.921Z,4.15
2019-03-23T17:46:35.045Z,4.14
2019-03-23T17:49:10.179Z,4.10
2019-03-23T17:51:44.244Z,4.02
2019-03-23T17:54:18.542Z,4.08
2019-03-23T17:56:54.035Z,4.03
2019-03-23T17:59:28.479Z,4.03
2019-03-23T18:02:02.632Z,4.07
2019-03-23T18:04:36.711Z,3.99
2019-03-23T18:07:10.725Z,4.00
2019-03-23T18:09:45.044Z,4.07
2019-03-23T18:12:19.223Z,4.01
2019-03-23T18:14:53.441Z,3.96
2019-03-23T18:17:27.352Z,3.96
2019-03-23T18:20:01.880Z,3.93
2019-03-23T18:22:35.967Z,3.94
2019-03-23T18:25:12.481Z,3.98
2019-03-23T18:27:48.593Z,3.90
2019-03-23T18:30:36.977Z,3.96
2019-03-23T18:33:10.958Z,3.96
2019-03-23T18:35:48.175Z,3.93
2019-03-23T18:38:23.803Z,3.90
2019-03-23T18:40:57.987Z,3.87
2019-03-23T18:43:32.658Z,3.84
2019-03-23T18:46:08.307Z,3.85
2019-03-23T18:48:42.986Z,3.81
2019-03-23T18:51:17.828Z,3.81
2019-03-23T18:53:53.715Z,3.77
2019-03-23T18:56:27.718Z,3.75
2019-03-23T18:59:02.006Z,3.73
2019-03-23T19:01:36.040Z,3.69
2019-03-23T19:04:12.623Z,3.73
2019-03-23T19:06:49.403Z,3.74
2019-03-23T19:09:23.428Z,3.71
2019-03-23T19:11:57.673Z,3.63
2019-03-23T19:14:32.169Z,3.69
2019-03-23T19:17:06.429Z,3.67
2019-03-23T19:19:40.690Z,3.65
2019-03-23T19:22:15.038Z,3.70
2019-03-23T19:24:50.197Z,3.68
2019-03-23T19:27:24.593Z,3.66
2019-03-23T19:29:58.899Z,3.71
2019-03-23T19:32:33.257Z,3.63
2019-03-23T19:35:07.726Z,3.66
2019-03-23T19:37:42.228Z,3.62
2019-03-23T19:40:16.465Z,3.62
2019-03-23T19:42:50.569Z,3.61
2019-03-23T19:45:24.701Z,3.58
2019-03-23T19:47:58.687Z,3.59
2019-03-23T19:50:34.201Z,3.62
2019-03-23T19:53:08.054Z,3.58
2019-03-23T19:55:42.191Z,3.59
2019-03-23T19:58:16.431Z,3.56
2019-03-23T20:00:50.715Z,3.58
2019-03-23T20:03:25.001Z,3.54
2019-03-23T20:06:00.547Z,3.56
2019-03-23T20:08:34.567Z,3.48
2019-03-23T20:11:08.942Z,3.48
2019-03-23T20:13:43.050Z,3.51
2019-03-23T20:16:18.972Z,3.54
2019-03-23T20:18:53.855Z,3.55
2019-03-23T20:21:30.612Z,3.56
2019-03-23T20:24:04.848Z,3.53
2019-03-23T20:26:40.627Z,3.45
2019-03-23T20:29:15.097Z,3.43
2019-03-23T20:31:50.296Z,3.42
2019-03-23T20:34:24.330Z,3.44
2019-03-23T20:36:58.691Z,3.43
2019-03-23T20:39:32.627Z,3.41
2019-03-23T20:42:06.698Z,3.41
2019-03-23T20:44:40.683Z,3.47
2019-03-23T20:47:14.832Z,3.44
2019-03-23T20:49:48.968Z,3.45
2019-03-23T20:52:22.914Z,3.45
2019-03-23T20:54:56.882Z,3.39
2019-03-23T20:57:37.358Z,3.40
2019-03-23T21:00:08.784Z,3.38
2019-03-23T21:02:42.883Z,3.36
2019-03-23T21:05:16.983Z,3.35
2019-03-23T21:07:51.194Z,3.42
2019-03-23T21:10:26.028Z,3.38
2019-03-23T21:13:00.037Z,3.39
2019-03-23T21:15:33.965Z,3.32
2019-03-23T21:18:08.209Z,3.34
2019-03-23T21:20:42.217Z,3.31
2019-03-23T21:23:16.090Z,3.26
2019-03-23T21:25:50.332Z,3.21
2019-03-23T21:28:24.106Z,3.19
2019-03-23T21:30:57.660Z,3.21
2019-03-23T21:33:32.118Z,3.17
2019-03-23T21:36:05.425Z,3.14
2019-03-23T21:38:39.217Z,3.13
2019-03-23T21:41:11.225Z,3.14
2019-03-23T21:43:43.091Z,3.14
2019-03-23T21:46:14.841Z,3.11
2019-03-23T21:48:46.400Z,3.06
2019-03-23T21:51:18.152Z,3.13
2019-03-23T21:53:49.920Z,3.03
2019-03-23T21:56:21.470Z,2.99
2019-03-23T21:58:53.232Z,2.92
2019-03-23T22:01:24.689Z,2.85
2019-03-23T22:03:56.545Z,2.79
2019-03-23T22:06:28.412Z,2.66
2019-03-23T22:08:59.959Z,2.61
2019-03-23T22:11:31.626Z,2.49
2019-03-23T22:14:03.581Z,2.46
2019-03-23T22:16:36.673Z,2.42
2019-03-23T22:19:08.330Z,2.41
2019-03-23T22:21:40.202Z,2.39
2019-03-23T22:24:11.661Z,2.25
2019-03-23T22:26:43.614Z,2.22
2019-03-23T22:29:15.477Z,2.16
2019-03-23T22:31:47.041Z,2.16
2019-03-23T22:34:19.920Z,2.08
2019-03-23T22:36:51.578Z,2.01
2019-03-23T22:39:23.437Z,2.02
2019-03-23T22:41:54.889Z,1.86
2019-03-23T22:44:26.565Z,1.79
2019-03-23T22:46:59.328Z,1.70
2019-03-23T22:49:31.097Z,1.68
2019-03-23T22:52:02.611Z,1.57
2019-03-23T22:54:34.306Z,1.51
2019-03-23T22:57:05.862Z,1.45
2019-03-23T22:59:37.727Z,1.42
2019-03-23T23:02:09.391Z,1.30
2019-03-23T23:04:41.038Z,1.26
2019-03-23T23:07:12.799Z,1.22
2019-03-23T23:09:44.350Z,1.18
2019-03-23T23:12:16.113Z,1.12
2019-03-23T23:14:47.670Z,1.09
2019-03-23T23:17:19.428Z,1.08
2019-03-23T23:19:51.193Z,1.04
2019-03-23T23:22:22.677Z,1.06
2019-03-23T23:24:54.402Z,1.02
2019-03-23T23:27:25.966Z,1.02
2019-03-23T23:29:57.720Z,0.99
2019-03-23T23:32:29.378Z,0.92
2019-03-23T23:35:01.756Z,0.95
2019-03-23T23:37:33.512Z,0.93
2019-03-23T23:40:06.910Z,0.95
2019-03-23T23:42:38.366Z,0.95
2019-03-23T23:45:15.756Z,0.91
2019-03-23T23:47:44.029Z,0.93
2019-03-23T23:50:18.450Z,0.91
2019-03-23T23:52:50.325Z,0.89
2019-03-23T23:55:22.176Z,0.89
2019-03-23T23:57:53.733Z,0.80
